createdAt,value
2022-12-25T00:01:18.846Z,97986.06
2022-12-25T00:06:20.118Z,97989.13
2022-12-25T00:11:21.472Z,97988.19
2022-12-25T00:16:22.735Z,97967.06
2022-12-25T00:21:24.116Z,97973.81
2022-12-25T00:26:25.456Z,97974.69
2022-12-25T00:31:26.859Z,97977.06
2022-12-25T00:36:28.224Z,97959.00
2022-12-25T00:41:48.260Z,97960.97
2022-12-25T00:46:49.608Z,97957.63
2022-12-25T00:51:50.877Z,97965.19
2022-12-25T00:56:52.165Z,97961.09
2022-12-25T01:01:53.535Z,97956.69
2022-12-25T01:06:54.857Z,97955.88
2022-12-25T01:11:56.140Z,97965.41
2022-12-25T01:16:57.423Z,97984.88
2022-12-25T01:21:58.747Z,97995.53
2022-12-25T01:27:00.090Z,97995.16
2022-12-25T01:32:01.429Z,97999.63
2022-12-25T01:37:02.711Z,98000.88
2022-12-25T01:42:03.965Z,98002.31
2022-12-25T01:47:05.219Z,97998.03
2022-12-25T01:52:06.505Z,97988.34
2022-12-25T01:57:07.722Z,97987.22
2022-12-25T02:02:09.173Z,97985.13
2022-12-25T02:07:10.521Z,97986.16
2022-12-25T02:12:11.766Z,97983.94
2022-12-25T02:17:13.030Z,97988.34
2022-12-25T02:22:14.434Z,97984.81
2022-12-25T02:27:15.805Z,97994.06
2022-12-25T02:32:17.121Z,97989.06
2022-12-25T02:37:18.418Z,97995.41
2022-12-25T02:42:19.630Z,97985.94
2022-12-25T02:47:39.796Z,97993.78
2022-12-25T02:52:59.589Z,97987.47
2022-12-25T02:58:19.502Z,97986.16
2022-12-25T03:03:39.488Z,97983.69
2022-12-25T03:08:40.767Z,97976.97
2022-12-25T03:13:41.992Z,97969.56
2022-12-25T03:18:43.277Z,97959.59
2022-12-25T03:24:03.250Z,97964.53
2022-12-25T03:29:04.485Z,97966.25
2022-12-25T03:34:24.458Z,97959.19
2022-12-25T03:39:44.293Z,97962.69
2022-12-25T03:45:05.937Z,97953.38
2022-12-25T03:50:25.924Z,97950.09
2022-12-25T03:55:45.740Z,97956.47
2022-12-25T04:01:05.509Z,97954.16
2022-12-25T04:06:25.463Z,97944.75
2022-12-25T04:11:45.659Z,97952.53
2022-12-25T04:17:05.824Z,97954.72
2022-12-25T04:22:25.979Z,97946.72
2022-12-25T04:27:45.791Z,97953.97
2022-12-25T04:33:05.595Z,97944.75
2022-12-25T04:38:07.055Z,97944.66
2022-12-25T04:43:08.390Z,97948.41
2022-12-25T04:48:09.695Z,97940.81
2022-12-25T04:53:10.972Z,97952.88
2022-12-25T04:58:12.270Z,97956.03
2022-12-25T05:03:13.697Z,97945.28
2022-12-25T05:08:14.971Z,97941.31
2022-12-25T05:13:16.225Z,97944.97
2022-12-25T05:18:17.519Z,97945.34
2022-12-25T05:23:18.783Z,97946.66
2022-12-25T05:28:19.986Z,97948.78
2022-12-25T05:33:21.193Z,97951.13
2022-12-25T05:38:22.441Z,97951.81
2022-12-25T05:43:24.086Z,97957.78
2022-12-25T05:48:25.411Z,97949.38
2022-12-25T05:53:26.729Z,97953.06
2022-12-25T05:58:28.385Z,97941.97
2022-12-25T06:03:29.923Z,97945.44
2022-12-25T06:08:31.321Z,97951.66
2022-12-25T06:13:32.697Z,97973.44
2022-12-25T06:18:33.979Z,97980.94
2022-12-25T06:23:35.286Z,97981.06
2022-12-25T06:28:36.641Z,97978.84
2022-12-25T06:33:38.003Z,97971.09
2022-12-25T06:38:39.362Z,97966.13
2022-12-25T06:43:40.645Z,97981.84
2022-12-25T06:48:46.896Z,97982.94
2022-12-25T06:53:48.246Z,97992.44
2022-12-25T06:58:49.567Z,98003.81
2022-12-25T07:03:50.870Z,98003.56
2022-12-25T07:08:52.140Z,97997.94
2022-12-25T07:13:53.401Z,98007.28
2022-12-25T07:18:54.711Z,98013.81
2022-12-25T07:23:56.107Z,98006.13
2022-12-25T07:28:57.386Z,97998.59
2022-12-25T07:33:58.702Z,97993.72
2022-12-25T07:38:59.922Z,97990.50
2022-12-25T07:44:02.045Z,97992.09
2022-12-25T07:49:03.271Z,97996.47
2022-12-25T07:54:04.570Z,97994.47
2022-12-25T07:59:05.875Z,98009.44
2022-12-25T08:04:08.299Z,98000.63
2022-12-25T08:09:09.757Z,98002.00
2022-12-25T08:14:11.054Z,98002.13
2022-12-25T08:19:12.396Z,98001.66
2022-12-25T08:24:13.750Z,97998.56
2022-12-25T08:29:15.122Z,97993.84
2022-12-25T08:34:16.371Z,98000.28
2022-12-25T08:39:17.594Z,97995.34
2022-12-25T08:44:18.888Z,97991.03
2022-12-25T08:49:20.164Z,97982.16
2022-12-25T08:54:21.631Z,97977.97
2022-12-25T08:59:22.936Z,97977.22
2022-12-25T09:04:24.223Z,97973.34
2022-12-25T09:09:25.561Z,97948.28
2022-12-25T09:14:26.865Z,97952.19
2022-12-25T09:19:28.183Z,97958.41
2022-12-25T09:24:29.626Z,97963.75
2022-12-25T09:29:30.950Z,97971.00
2022-12-25T09:34:32.256Z,97965.56
2022-12-25T09:39:33.492Z,97959.94
2022-12-25T09:44:34.858Z,97954.94
2022-12-25T09:49:36.326Z,97955.03
2022-12-25T09:54:37.678Z,97951.94
2022-12-25T09:59:39.087Z,97950.63
2022-12-25T10:04:41.074Z,97941.19
2022-12-25T10:09:42.749Z,97942.75
2022-12-25T10:14:44.045Z,97938.16
2022-12-25T10:19:45.475Z,97935.25
2022-12-25T10:24:46.831Z,97928.16
2022-12-25T10:29:48.115Z,97910.38
2022-12-25T10:34:50.362Z,97909.84
2022-12-25T10:39:51.725Z,97892.59
2022-12-25T10:44:53.010Z,97888.28
2022-12-25T10:49:54.246Z,97875.63
2022-12-25T10:54:55.952Z,97860.41
2022-12-25T10:59:57.554Z,97842.78
2022-12-25T11:04:58.770Z,97829.97
2022-12-25T11:10:04.750Z,97813.09
2022-12-25T11:15:06.736Z,97807.66
2022-12-25T11:20:08.012Z,97798.88
2022-12-25T11:25:09.266Z,97791.81
2022-12-25T11:30:15.854Z,97783.53
2022-12-25T11:35:18.428Z,97776.69
2022-12-25T11:40:19.700Z,97782.59
2022-12-25T11:45:21.012Z,97783.81
2022-12-25T11:50:23.465Z,97777.13
2022-12-25T11:55:24.698Z,97751.69
2022-12-25T12:00:25.936Z,97738.31
2022-12-25T12:05:27.217Z,97725.38
2022-12-25T12:10:28.531Z,97715.81
2022-12-25T12:15:29.919Z,97709.38
2022-12-25T12:20:31.310Z,97703.72
2022-12-25T12:25:32.972Z,97695.09
2022-12-25T12:30:34.803Z,97698.06
2022-12-25T12:35:36.096Z,97701.41
2022-12-25T12:40:37.365Z,97702.94
2022-12-25T12:45:38.800Z,97687.19
2022-12-25T12:50:41.575Z,97685.50
2022-12-25T12:55:42.872Z,97666.75
2022-12-25T13:00:44.813Z,97653.91
2022-12-25T13:05:48.040Z,97640.41
2022-12-25T13:10:49.423Z,97641.19
2022-12-25T13:15:50.772Z,97625.91
2022-12-25T13:20:55.040Z,97639.78
2022-12-25T13:25:56.489Z,97631.53
2022-12-25T13:30:57.771Z,97630.50
2022-12-25T13:35:59.119Z,97630.09
2022-12-25T13:41:19.332Z,97648.13
2022-12-25T13:46:20.646Z,97638.84
2022-12-25T13:51:22.023Z,97626.38
2022-12-25T13:56:23.234Z,97626.25
2022-12-25T14:01:24.544Z,97624.84
2022-12-25T14:06:25.941Z,97641.66
2022-12-25T14:11:27.174Z,97638.28
2022-12-25T14:16:28.459Z,97659.78
2022-12-25T14:21:29.851Z,97666.00
2022-12-25T14:26:31.119Z,97661.84
2022-12-25T14:31:32.383Z,97650.75
2022-12-25T14:36:33.636Z,97665.13
2022-12-25T14:41:36.994Z,97677.81
2022-12-25T14:46:38.259Z,97666.81
2022-12-25T14:51:39.549Z,97654.19
2022-12-25T14:56:41.210Z,97660.13
2022-12-25T15:01:42.906Z,97664.88
2022-12-25T15:06:44.897Z,97675.31
2022-12-25T15:11:46.243Z,97678.69
2022-12-25T15:16:47.479Z,97681.50
2022-12-25T15:21:48.869Z,97683.72
2022-12-25T15:26:52.079Z,97679.03
2022-12-25T15:31:53.346Z,97659.59
2022-12-25T15:36:54.622Z,97649.69
2022-12-25T15:42:11.231Z,97659.72
2022-12-25T15:47:12.655Z,97662.81
2022-12-25T15:52:14.061Z,97647.59
2022-12-25T15:57:15.312Z,97638.94
2022-12-25T16:02:16.937Z,97644.69
2022-12-25T16:07:18.462Z,97643.66
2022-12-25T16:12:19.842Z,97639.59
2022-12-25T16:17:21.393Z,97648.28
2022-12-25T16:22:23.741Z,97657.03
2022-12-25T16:27:25.255Z,97669.81
2022-12-25T16:32:26.499Z,97663.97
2022-12-25T16:37:28.758Z,97664.16
2022-12-25T16:42:29.974Z,97660.59
2022-12-25T16:47:31.196Z,97644.53
2022-12-25T16:52:32.780Z,97654.44
2022-12-25T16:57:34.074Z,97641.13
2022-12-25T17:02:35.553Z,97640.88
2022-12-25T17:07:37.053Z,97650.81
2022-12-25T17:12:38.464Z,97666.06
2022-12-25T17:17:39.800Z,97655.75
2022-12-25T17:22:41.059Z,97662.19
2022-12-25T17:27:42.271Z,97640.03
2022-12-25T17:32:43.563Z,97633.16
2022-12-25T17:37:44.903Z,97629.00
2022-12-25T17:42:46.173Z,97634.63
2022-12-25T17:47:47.406Z,97647.13
2022-12-25T17:52:48.670Z,97644.09
2022-12-25T17:57:50.847Z,97644.16
2022-12-25T18:08:39.859Z,97638.94
2022-12-25T18:19:48.972Z,97630.31
2022-12-25T18:24:50.308Z,97646.22
2022-12-25T18:29:51.633Z,97650.88
2022-12-25T18:34:52.931Z,97641.84
2022-12-25T18:39:54.223Z,97639.00
2022-12-25T18:44:55.534Z,97631.28
2022-12-25T18:49:56.795Z,97637.06
2022-12-25T18:54:58.048Z,97625.50
2022-12-25T18:59:59.751Z,97623.63
2022-12-25T19:05:00.987Z,97617.16
2022-12-25T19:10:02.264Z,97625.78
2022-12-25T19:15:03.487Z,97628.16
2022-12-25T19:20:06.127Z,97629.66
2022-12-25T19:25:07.501Z,97640.91
2022-12-25T19:30:09.763Z,97640.56
2022-12-25T19:35:11.093Z,97656.38
2022-12-25T19:40:12.343Z,97668.94
2022-12-25T19:45:13.557Z,97649.78
2022-12-25T19:50:14.852Z,97647.59
2022-12-25T19:55:16.323Z,97647.09
2022-12-25T20:00:17.553Z,97658.22
2022-12-25T20:05:18.860Z,97653.97
2022-12-25T20:10:20.135Z,97653.00
2022-12-25T20:15:21.368Z,97646.97
2022-12-25T20:20:22.626Z,97640.00
2022-12-25T20:25:23.956Z,97642.03
2022-12-25T20:30:25.283Z,97649.50
2022-12-25T20:35:26.679Z,97636.03
2022-12-25T20:40:28.071Z,97648.75
2022-12-25T20:45:29.459Z,97665.47
2022-12-25T20:50:30.817Z,97665.78
2022-12-25T20:55:32.105Z,97665.94
2022-12-25T21:00:33.372Z,97664.75
2022-12-25T21:05:34.695Z,97658.56
2022-12-25T21:10:35.984Z,97655.25
2022-12-25T21:15:37.261Z,97650.88
2022-12-25T21:20:38.795Z,97648.16
2022-12-25T21:25:40.043Z,97652.56
2022-12-25T21:30:41.377Z,97640.13
2022-12-25T21:35:42.665Z,97666.84
2022-12-25T21:40:43.946Z,97677.50
2022-12-25T21:45:45.963Z,97686.19
2022-12-25T21:51:06.155Z,97678.81
2022-12-25T21:56:07.682Z,97702.88
2022-12-25T22:01:09.004Z,97704.00
2022-12-25T22:06:29.232Z,97706.66
2022-12-25T22:11:49.058Z,97708.31
2022-12-25T22:17:09.268Z,97711.47
2022-12-25T22:22:10.510Z,97711.25
2022-12-25T22:27:11.812Z,97709.78
2022-12-25T22:32:13.035Z,97702.19
2022-12-25T22:37:14.328Z,97695.38
2022-12-25T22:42:15.583Z,97705.91
2022-12-25T22:47:16.820Z,97714.28
2022-12-25T22:52:18.044Z,97705.34
2022-12-25T22:57:19.306Z,97712.63
2022-12-25T23:02:20.932Z,97704.59
2022-12-25T23:07:22.538Z,97702.88
2022-12-25T23:12:42.832Z,97706.94
2022-12-25T23:18:02.921Z,97712.94
2022-12-25T23:23:22.933Z,97710.59
2022-12-25T23:28:43.165Z,97727.88
2022-12-25T23:33:44.428Z,97721.06
2022-12-25T23:38:45.688Z,97725.31
2022-12-25T23:43:46.903Z,97728.94
2022-12-25T23:48:48.152Z,97726.06
2022-12-25T23:53:49.394Z,97727.16
2022-12-25T23:58:51.991Z,97737.75
